Time;durP1;ratioP1;P1;durP2;ratioP2;P2;SDS_P1;SDS_P2;PMS_P1;PMS_P2;Temp;Humidity;BMP_temperature;BMP_pressure;BME280_temperature;BME280_humidity;BME280_pressure;Samples;Min_cycle;Max_cycle;Signal;HPM_P1;HPM_P2
2022/07/21 00:03:15;;;;;;;4.72;4.22;;;31.70;48.00;;;;;;10403525;28;20048;-45
2022/07/21 00:08:17;;;;;;;4.60;4.13;;;31.60;48.00;;;;;;10380277;28;20490;-40
2022/07/21 00:13:21;;;;;;;5.00;3.72;;;31.60;48.20;;;;;;10392880;28;20082;-43
2022/07/21 00:18:23;;;;;;;8.75;3.83;;;31.60;48.20;;;;;;10409227;28;20398;-40
2022/07/21 00:23:25;;;;;;;3.90;3.50;;;31.60;48.10;;;;;;10397183;28;20719;-40
2022/07/21 00:28:29;;;;;;;4.38;3.47;;;31.50;48.20;;;;;;10393217;28;20076;-42
2022/07/21 00:33:31;;;;;;;3.83;3.20;;;31.50;48.20;;;;;;10392739;28;20794;-42
2022/07/21 00:38:32;;;;;;;6.07;3.40;;;31.50;48.20;;;;;;10402618;28;20371;-42
2022/07/21 00:43:36;;;;;;;4.00;3.22;;;31.50;48.20;;;;;;10426040;28;20480;-40
2022/07/21 00:48:38;;;;;;;3.17;2.92;;;31.50;48.30;;;;;;10406769;28;20037;-39
2022/07/21 00:53:40;;;;;;;3.92;3.55;;;31.40;48.30;;;;;;10407483;28;20048;-40
2022/07/21 00:58:44;;;;;;;4.07;3.47;;;31.40;48.30;;;;;;10407744;28;20041;-41
2022/07/21 01:03:46;;;;;;;3.25;2.95;;;31.40;48.30;;;;;;10407816;28;20537;-39
2022/07/21 01:08:48;;;;;;;3.88;3.00;;;31.40;48.40;;;;;;10396740;28;20398;-41
2022/07/21 01:13:52;;;;;;;3.38;3.08;;;31.30;48.40;;;;;;10396316;28;20088;-40
2022/07/21 01:18:55;;;;;;;3.28;2.90;;;31.30;48.50;;;;;;10404279;28;20049;-40
2022/07/21 01:23:59;;;;;;;3.75;3.20;;;31.30;48.50;;;;;;10401496;28;20042;-42
2022/07/21 01:29:01;;;;;;;4.10;3.30;;;31.30;48.60;;;;;;10400122;28;20419;-44
2022/07/21 01:34:03;;;;;;;3.70;3.22;;;31.20;48.60;;;;;;10395792;28;20045;-47
2022/07/21 01:44:26;;;;;;;3.40;3.08;;;31.20;48.80;;;;;;10401213;28;20041;-42
2022/07/21 01:49:28;;;;;;;3.40;2.85;;;31.10;48.70;;;;;;10390651;28;20871;-41
2022/07/21 01:54:32;;;;;;;3.58;3.25;;;31.10;48.90;;;;;;10383024;28;20430;-42
2022/07/21 01:59:34;;;;;;;5.13;3.58;;;31.00;49.80;;;;;;10384622;28;20061;-45
2022/07/21 02:04:36;;;;;;;4.38;3.00;;;31.00;49.50;;;;;;10400759;28;20040;-41
2022/07/21 02:09:39;;;;;;;5.90;4.05;;;31.00;49.60;;;;;;10386192;28;20117;-41
2022/07/21 02:14:41;;;;;;;4.43;3.35;;;30.90;49.60;;;;;;10394203;28;20053;-41
2022/07/21 02:19:43;;;;;;;6.88;3.03;;;30.90;49.70;;;;;;10397541;28;20050;-42
2022/07/21 02:24:46;;;;;;;3.78;3.38;;;31.00;49.40;;;;;;10406440;28;20045;-39
2022/07/21 02:29:48;;;;;;;6.45;3.22;;;31.00;49.30;;;;;;10399375;28;20056;-42
2022/07/21 02:34:50;;;;;;;3.83;3.08;;;31.00;49.10;;;;;;10413309;28;20540;-41
2022/07/21 02:39:53;;;;;;;5.05;3.28;;;30.80;49.20;;;;;;10404523;28;20045;-41
2022/07/21 02:44:55;;;;;;;4.88;3.40;;;30.80;49.10;;;;;;10407334;28;20129;-41
2022/07/21 02:49:57;;;;;;;3.17;2.83;;;30.80;48.80;;;;;;10382903;28;20141;-40
2022/07/21 02:55:00;;;;;;;4.38;3.33;;;30.80;48.70;;;;;;10407847;28;20076;-40
2022/07/21 03:00:03;;;;;;;4.43;3.05;;;30.80;49.00;;;;;;10404845;28;20076;-42
2022/07/21 03:05:05;;;;;;;2.97;2.67;;;30.70;48.90;;;;;;10407905;28;20046;-43
2022/07/21 03:10:09;;;;;;;4.28;2.78;;;30.70;48.90;;;;;;10414031;28;20045;-43
2022/07/21 03:15:11;;;;;;;3.38;2.60;;;30.70;48.80;;;;;;10407490;28;20057;-41
2022/07/21 03:20:13;;;;;;;3.35;3.05;;;30.70;48.70;;;;;;10405894;28;20127;-43
2022/07/21 03:25:17;;;;;;;3.67;2.70;;;30.70;48.70;;;;;;10400594;28;20041;-41
2022/07/21 03:30:19;;;;;;;6.55;2.72;;;30.60;48.60;;;;;;10408968;28;20049;-44
2022/07/21 03:35:21;;;;;;;3.40;2.70;;;30.60;48.50;;;;;;10400526;28;20125;-41
2022/07/21 03:40:27;;;;;;;19.42;2.70;;;30.60;48.70;;;;;;10411662;28;20073;-42
2022/07/21 03:45:30;;;;;;;22.02;8.80;;;30.50;48.50;;;;;;10406741;28;20046;-45
2022/07/21 03:50:33;;;;;;;5.38;2.95;;;30.50;48.70;;;;;;10411898;28;20052;-44
2022/07/21 03:55:36;;;;;;;26.05;8.65;;;30.40;48.80;;;;;;10396315;28;20045;-43
2022/07/21 04:00:40;;;;;;;6.40;3.10;;;30.40;48.80;;;;;;10383625;28;20037;-41
2022/07/21 04:05:43;;;;;;;11.77;4.07;;;30.40;48.70;;;;;;10393498;28;20049;-40
2022/07/21 04:10:46;;;;;;;7.88;5.13;;;30.40;49.50;;;;;;10389211;28;20046;-44
2022/07/21 04:15:48;;;;;;;19.30;7.85;;;30.40;49.20;;;;;;10399786;28;20045;-41
2022/07/21 04:20:50;;;;;;;17.00;7.65;;;30.30;48.70;;;;;;10403076;28;20038;-44
2022/07/21 04:25:53;;;;;;;5.90;3.15;;;30.30;48.80;;;;;;10405014;28;20042;-42
2022/07/21 04:30:55;;;;;;;7.00;3.05;;;30.30;48.90;;;;;;10411765;28;20167;-44
2022/07/21 04:35:57;;;;;;;6.75;3.40;;;30.30;48.80;;;;;;10397930;28;20050;-44
2022/07/21 04:41:00;;;;;;;4.47;2.83;;;30.20;48.40;;;;;;10397752;28;20081;-42
2022/07/21 04:46:02;;;;;;;6.88;3.03;;;30.20;48.80;;;;;;10401229;28;20068;-44
2022/07/21 04:51:04;;;;;;;7.32;3.38;;;30.20;48.80;;;;;;10404424;28;20041;-41
2022/07/21 04:56:07;;;;;;;4.80;3.05;;;30.20;48.70;;;;;;10406420;28;20128;-43
2022/07/21 05:01:09;;;;;;;4.03;3.03;;;30.10;48.80;;;;;;10405032;28;20079;-45
2022/07/21 05:06:11;;;;;;;6.75;3.17;;;30.10;48.80;;;;;;10405784;28;20057;-41
2022/07/21 05:11:15;;;;;;;28.60;9.95;;;30.10;48.80;;;;;;10381292;28;20077;-43
2022/07/21 05:16:16;;;;;;;6.57;3.45;;;30.10;48.90;;;;;;10405357;28;20033;-42
2022/07/21 05:21:18;;;;;;;4.43;3.22;;;30.10;48.50;;;;;;10406596;28;20406;-43
2022/07/21 05:26:21;;;;;;;6.68;3.13;;;30.00;48.60;;;;;;10391437;28;20124;-48
2022/07/21 05:31:23;;;;;;;11.98;4.85;;;30.00;48.70;;;;;;10392510;28;21821;-44
2022/07/21 05:36:25;;;;;;;6.60;3.95;;;29.90;48.30;;;;;;10389387;28;20065;-43
2022/07/21 05:41:28;;;;;;;11.73;6.38;;;29.90;48.00;;;;;;10398196;28;20076;-39
2022/07/21 05:46:30;;;;;;;16.60;7.03;;;29.90;48.10;;;;;;10396236;28;20073;-43
2022/07/21 05:51:32;;;;;;;8.52;4.90;;;29.90;48.40;;;;;;10407617;28;20110;-48
2022/07/21 05:56:35;;;;;;;9.40;4.97;;;29.90;48.50;;;;;;10407020;28;20108;-44
2022/07/21 06:01:37;;;;;;;6.93;4.07;;;29.90;48.60;;;;;;10404078;28;20438;-47
2022/07/21 06:06:39;;;;;;;6.03;4.15;;;29.90;48.90;;;;;;10400857;28;20046;-42
2022/07/21 06:11:42;;;;;;;9.90;4.15;;;29.90;48.90;;;;;;10395803;28;20092;-46
2022/07/21 06:16:44;;;;;;;7.88;3.70;;;29.80;48.80;;;;;;10386774;28;20072;-47
2022/07/21 06:21:46;;;;;;;7.55;4.15;;;29.80;49.20;;;;;;10404491;28;20046;-43
2022/07/21 06:26:49;;;;;;;5.68;3.40;;;29.80;48.80;;;;;;10393005;28;20095;-43
2022/07/21 06:31:51;;;;;;;4.15;3.28;;;29.80;49.00;;;;;;10402959;28;20447;-42
2022/07/21 06:36:53;;;;;;;4.55;3.47;;;29.70;48.90;;;;;;10408671;28;20076;-45
2022/07/21 06:41:56;;;;;;;5.55;4.15;;;29.70;49.10;;;;;;10404808;28;20474;-41
2022/07/21 06:47:04;;;;;;;4.90;3.45;;;29.70;48.90;;;;;;10406309;28;20160;-43
2022/07/21 06:52:06;;;;;;;9.30;4.15;;;29.60;49.70;;;;;;10393204;28;20045;-46
2022/07/21 06:57:09;;;;;;;4.30;3.20;;;29.60;49.60;;;;;;10407298;28;20117;-44
2022/07/21 07:02:11;;;;;;;12.45;5.05;;;29.60;49.30;;;;;;10401341;28;20446;-45
2022/07/21 07:07:13;;;;;;;7.07;3.88;;;29.60;49.30;;;;;;10399324;28;20046;-46
2022/07/21 07:12:16;;;;;;;6.95;4.47;;;29.60;49.10;;;;;;10401061;28;20133;-43
2022/07/21 07:17:19;;;;;;;6.15;3.40;;;29.60;49.20;;;;;;10410981;28;20609;-44
2022/07/21 07:22:21;;;;;;;6.15;3.47;;;29.60;49.40;;;;;;10402004;28;20129;-45
2022/07/21 07:27:24;;;;;;;8.05;3.90;;;29.60;49.90;;;;;;10390082;28;20505;-48
2022/07/21 07:32:26;;;;;;;8.07;4.53;;;29.50;49.40;;;;;;10399509;28;20501;-43
2022/07/21 07:37:28;;;;;;;4.72;3.78;;;29.50;49.00;;;;;;10404835;28;20076;-40
2022/07/21 07:42:31;;;;;;;6.25;3.92;;;29.50;49.10;;;;;;10405459;28;20133;-45
2022/07/21 07:47:33;;;;;;;4.57;3.15;;;29.50;49.30;;;;;;10407495;28;20042;-42
2022/07/21 07:52:35;;;;;;;5.30;3.72;;;29.40;49.30;;;;;;10411927;28;20132;-46
2022/07/21 07:57:39;;;;;;;4.32;3.13;;;29.30;49.40;;;;;;10404646;28;20042;-40
2022/07/21 08:02:41;;;;;;;7.10;4.07;;;29.40;49.50;;;;;;10412111;28;20132;-39
2022/07/21 08:07:43;;;;;;;7.45;4.00;;;29.40;49.30;;;;;;10397114;28;20045;-39
2022/07/21 08:12:46;;;;;;;6.63;3.90;;;29.30;50.10;;;;;;10404467;28;20056;-40
2022/07/21 08:17:48;;;;;;;5.88;3.45;;;29.30;49.70;;;;;;10401328;28;20080;-40
2022/07/21 08:22:50;;;;;;;5.07;3.40;;;29.30;49.60;;;;;;10407510;28;20037;-42
2022/07/21 08:27:53;;;;;;;5.45;3.00;;;29.30;49.60;;;;;;10395712;28;20036;-42
2022/07/21 08:32:55;;;;;;;4.95;3.67;;;29.30;49.40;;;;;;10398396;28;20049;-39
2022/07/21 08:37:59;;;;;;;4.00;2.80;;;29.30;49.30;;;;;;10395082;28;20048;-39
2022/07/21 08:43:04;;;;;;;5.20;3.00;;;29.30;49.50;;;;;;10407403;28;20081;-45
2022/07/21 08:48:07;;;;;;;6.13;2.50;;;29.30;49.40;;;;;;10399129;28;20458;-42
2022/07/21 08:53:09;;;;;;;5.82;2.85;;;29.30;49.60;;;;;;10393267;28;20767;-45
2022/07/21 08:58:13;;;;;;;4.70;2.25;;;29.20;49.70;;;;;;10384624;28;20394;-44
2022/07/21 09:03:18;;;;;;;6.18;2.28;;;29.20;49.80;;;;;;10397576;28;20130;-41
2022/07/21 09:08:29;;;;;;;3.25;1.92;;;29.20;49.70;;;;;;10398923;28;20049;-42
2022/07/21 09:13:33;;;;;;;2.60;2.20;;;29.20;49.60;;;;;;10392501;28;20045;-42
2022/07/21 09:18:46;;;;;;;3.15;1.90;;;29.10;49.70;;;;;;10395997;28;20095;-43
2022/07/21 09:23:48;;;;;;;2.53;1.60;;;29.10;49.80;;;;;;10408718;28;20053;-47
2022/07/21 09:28:51;;;;;;;10.80;1.55;;;29.00;49.80;;;;;;10400659;28;20467;-49
2022/07/21 09:33:53;;;;;;;2.72;1.85;;;29.00;49.90;;;;;;10406380;28;20199;-42
2022/07/21 09:38:56;;;;;;;3.25;1.52;;;29.00;50.00;;;;;;10404109;28;20538;-42
2022/07/21 09:43:59;;;;;;;5.43;1.40;;;29.00;50.20;;;;;;10399195;28;20053;-40
2022/07/21 09:49:04;;;;;;;3.92;1.42;;;29.00;50.20;;;;;;10409404;28;20052;-41
2022/07/21 09:54:08;;;;;;;2.33;1.33;;;29.00;50.00;;;;;;10403336;28;20049;-40
2022/07/21 09:59:13;;;;;;;3.17;1.38;;;28.90;50.10;;;;;;10409356;28;20112;-40
2022/07/21 10:04:15;;;;;;;1.90;1.10;;;29.00;50.20;;;;;;10405156;28;20447;-45
2022/07/21 10:09:17;;;;;;;3.08;1.20;;;28.90;50.00;;;;;;10389731;28;20111;-43
2022/07/21 10:14:20;;;;;;;1.95;0.98;;;28.90;50.00;;;;;;10396801;28;20038;-42
2022/07/21 10:19:28;;;;;;;3.45;1.20;;;28.90;50.10;;;;;;10399111;28;20478;-43
2022/07/21 10:24:31;;;;;;;2.95;0.98;;;28.80;50.00;;;;;;10398078;28;20134;-40
2022/07/21 10:30:00;;;;;;;2.90;1.10;;;28.80;50.20;;;;;;10396115;28;20045;-46
2022/07/21 10:35:23;;;;;;;2.60;1.00;;;28.80;50.30;;;;;;10382174;28;20116;-44
2022/07/21 10:40:36;;;;;;;1.42;0.95;;;28.80;50.30;;;;;;10404198;28;20058;-41
2022/07/21 10:45:42;;;;;;;3.20;1.02;;;28.80;50.20;;;;;;10393487;28;20130;-43
2022/07/21 10:50:51;;;;;;;4.97;1.08;;;28.80;50.30;;;;;;10405474;28;20044;-49
2022/07/21 10:55:55;;;;;;;4.20;1.40;;;28.70;50.60;;;;;;10396184;28;20077;-38
2022/07/21 11:00:59;;;;;;;3.10;1.00;;;28.70;50.50;;;;;;10407142;28;20049;-44
2022/07/21 11:06:15;;;;;;;1.50;0.73;;;28.70;50.50;;;;;;10411824;28;20065;-41
2022/07/21 11:11:19;;;;;;;9.45;1.00;;;28.60;50.70;;;;;;10408149;28;20386;-44
2022/07/21 11:16:22;;;;;;;3.55;1.10;;;28.60;50.90;;;;;;10392178;28;20441;-48
2022/07/21 11:21:24;;;;;;;2.92;1.00;;;28.60;51.00;;;;;;10407871;28;20073;-42
2022/07/21 11:26:27;;;;;;;2.90;0.90;;;28.60;50.60;;;;;;10405626;28;20548;-43
2022/07/21 11:31:30;;;;;;;2.53;0.63;;;28.60;50.70;;;;;;10397407;28;20054;-42
2022/07/21 11:36:33;;;;;;;2.25;0.52;;;28.60;50.80;;;;;;10390988;28;20117;-44
2022/07/21 11:41:37;;;;;;;3.08;0.73;;;28.60;50.50;;;;;;10394843;28;20076;-46
2022/07/21 11:46:51;;;;;;;2.25;1.05;;;28.60;50.80;;;;;;10410404;28;20096;-44
2022/07/21 11:51:56;;;;;;;4.22;0.80;;;28.60;50.70;;;;;;10409853;28;20808;-42
2022/07/21 11:56:59;;;;;;;2.30;0.70;;;28.60;51.00;;;;;;10409032;28;20038;-46
2022/07/21 12:02:06;;;;;;;3.25;0.80;;;28.60;50.70;;;;;;10393221;28;20041;-43
2022/07/21 12:07:16;;;;;;;5.05;0.90;;;28.60;50.80;;;;;;10402395;28;20429;-43
2022/07/21 12:12:29;;;;;;;2.80;0.95;;;28.60;50.80;;;;;;10406699;28;20578;-44
2022/07/21 12:17:37;;;;;;;3.53;0.70;;;28.50;50.80;;;;;;10405080;28;20478;-41
2022/07/21 12:22:43;;;;;;;3.50;1.13;;;28.60;50.50;;;;;;10406792;28;20053;-40
2022/07/21 12:27:46;;;;;;;3.20;0.90;;;28.50;51.50;;;;;;10402840;28;20072;-43
2022/07/21 12:32:50;;;;;;;5.40;1.27;;;28.50;50.70;;;;;;10416522;28;20486;-42
2022/07/21 12:37:53;;;;;;;8.07;1.75;;;28.50;50.70;;;;;;10407119;28;20152;-43
2022/07/21 12:43:08;;;;;;;6.15;1.25;;;28.50;50.70;;;;;;10400282;28;20136;-41
2022/07/21 12:48:13;;;;;;;10.35;1.73;;;28.40;50.80;;;;;;10407659;28;20034;-41
2022/07/21 12:53:15;;;;;;;12.48;1.90;;;28.40;50.80;;;;;;10399547;28;20081;-43
2022/07/21 12:58:17;;;;;;;8.43;1.58;;;28.30;50.80;;;;;;10403226;28;20129;-44
2022/07/21 13:03:20;;;;;;;6.38;1.25;;;28.40;50.70;;;;;;10397297;28;20065;-42
2022/07/21 13:08:22;;;;;;;7.90;1.92;;;28.40;50.70;;;;;;10408546;28;20068;-45
2022/07/21 13:13:24;;;;;;;10.07;1.52;;;28.40;50.70;;;;;;10418222;28;20445;-41
2022/07/21 13:18:27;;;;;;;6.85;2.25;;;28.40;50.90;;;;;;10399386;28;20128;-44
2022/07/21 13:23:29;;;;;;;9.70;2.03;;;28.40;50.70;;;;;;10405094;28;20065;-46
2022/07/21 13:28:31;;;;;;;12.57;2.40;;;28.40;50.80;;;;;;10399305;28;20050;-48
2022/07/21 13:33:36;;;;;;;5.22;1.85;;;28.30;51.00;;;;;;10401985;28;20049;-44
2022/07/21 13:38:38;;;;;;;9.25;2.10;;;28.30;50.90;;;;;;10408070;28;20045;-41
2022/07/21 13:43:40;;;;;;;15.23;2.20;;;28.30;50.80;;;;;;10408209;28;20077;-47
2022/07/21 13:48:44;;;;;;;8.88;2.00;;;28.20;50.80;;;;;;10384060;28;20128;-43
2022/07/21 13:53:47;;;;;;;13.13;2.35;;;28.20;50.90;;;;;;10397310;28;20051;-41
2022/07/21 13:58:49;;;;;;;10.35;1.85;;;28.20;50.90;;;;;;10395383;28;20121;-51
2022/07/21 14:03:53;;;;;;;8.35;2.20;;;28.20;50.80;;;;;;10405804;28;20037;-45
2022/07/21 14:08:54;;;;;;;5.13;1.42;;;28.20;50.80;;;;;;10401577;28;20042;-41
2022/07/21 14:13:56;;;;;;;11.43;2.67;;;28.20;50.70;;;;;;10402053;28;20045;-45
2022/07/21 14:19:00;;;;;;;7.68;2.13;;;28.20;50.90;;;;;;10396665;28;20120;-45
2022/07/21 14:29:23;;;;;;;12.02;1.85;;;28.20;50.70;;;;;;10386277;28;20045;-47
2022/07/21 14:34:26;;;;;;;7.20;1.80;;;28.20;50.70;;;;;;10408141;28;20161;-41
2022/07/21 14:39:29;;;;;;;4.63;1.90;;;28.20;50.70;;;;;;10404059;28;20061;-43
2022/07/21 14:44:30;;;;;;;4.53;1.30;;;28.20;50.60;;;;;;10410279;28;20533;-43
2022/07/21 14:49:34;;;;;;;11.90;2.03;;;28.10;50.60;;;;;;10409287;28;20455;-42
2022/07/21 14:54:36;;;;;;;5.93;1.48;;;28.10;50.60;;;;;;10400226;28;20045;-47
2022/07/21 14:59:38;;;;;;;10.40;2.15;;;28.10;50.60;;;;;;10406905;28;20045;-44
2022/07/21 15:04:41;;;;;;;3.58;1.20;;;28.10;50.40;;;;;;10410211;28;20042;-44
2022/07/21 15:09:43;;;;;;;10.75;1.85;;;28.10;50.30;;;;;;10404802;28;20046;-47
2022/07/21 15:14:45;;;;;;;7.70;1.50;;;28.20;50.40;;;;;;10405718;28;20489;-47
2022/07/21 15:19:48;;;;;;;8.70;2.50;;;28.20;50.30;;;;;;10412289;28;20072;-46
2022/07/21 15:24:50;;;;;;;8.10;1.42;;;28.20;50.30;;;;;;10404685;28;20072;-45
2022/07/21 15:29:52;;;;;;;11.30;2.22;;;28.20;50.00;;;;;;10409271;28;20533;-41
2022/07/21 15:34:55;;;;;;;10.70;2.17;;;28.20;50.30;;;;;;10414200;28;20132;-45
2022/07/21 15:39:57;;;;;;;5.90;1.90;;;28.10;50.10;;;;;;10403430;28;20445;-44
2022/07/21 15:45:00;;;;;;;10.45;2.15;;;28.10;50.20;;;;;;10389762;28;20149;-47
2022/07/21 15:50:05;;;;;;;6.53;1.80;;;28.20;50.10;;;;;;10400654;28;20073;-43
2022/07/21 15:55:08;;;;;;;10.60;1.88;;;28.20;50.10;;;;;;10391331;28;20089;-45
2022/07/21 16:00:12;;;;;;;7.60;1.63;;;28.10;50.00;;;;;;10404214;28;20149;-43
2022/07/21 16:05:18;;;;;;;5.43;1.75;;;28.10;50.10;;;;;;10408512;28;20073;-47
2022/07/21 16:10:22;;;;;;;4.63;1.60;;;28.10;50.00;;;;;;10406815;28;20047;-44
2022/07/21 16:15:23;;;;;;;7.30;1.67;;;28.20;50.00;;;;;;10412173;28;20133;-43
2022/07/21 16:20:28;;;;;;;13.60;2.80;;;28.10;50.00;;;;;;10413128;28;20136;-46
2022/07/21 16:25:30;;;;;;;5.53;1.50;;;28.10;50.00;;;;;;10395608;28;20053;-46
2022/07/21 16:30:31;;;;;;;5.88;1.60;;;28.00;49.90;;;;;;10403175;28;20088;-45
2022/07/21 16:35:34;;;;;;;20.58;2.58;;;28.00;49.90;;;;;;10416067;28;20441;-48
2022/07/21 16:40:36;;;;;;;14.63;2.38;;;28.00;49.80;;;;;;10405476;28;20084;-46
2022/07/21 16:45:38;;;;;;;7.38;1.50;;;28.00;49.80;;;;;;10407837;28;20549;-43
2022/07/21 16:50:41;;;;;;;7.78;2.10;;;28.00;49.80;;;;;;10410729;28;20128;-43
2022/07/21 16:55:43;;;;;;;4.43;1.38;;;28.00;49.80;;;;;;10404832;28;20042;-43
2022/07/21 17:00:45;;;;;;;12.00;2.42;;;28.00;49.80;;;;;;10406912;28;20045;-45
2022/07/21 17:05:49;;;;;;;9.40;2.85;;;27.90;49.80;;;;;;10396493;28;20038;-43
2022/07/21 17:10:51;;;;;;;11.85;2.13;;;27.90;49.80;;;;;;10388687;28;20132;-48
2022/07/21 17:15:53;;;;;;;6.78;1.67;;;27.90;49.80;;;;;;10394351;28;20470;-46
2022/07/21 17:20:56;;;;;;;5.53;1.98;;;27.90;49.70;;;;;;10399832;28;20462;-43
2022/07/21 17:25:58;;;;;;;10.80;2.35;;;27.90;49.80;;;;;;10402401;28;20073;-49
2022/07/21 17:31:00;;;;;;;8.95;1.88;;;27.90;49.70;;;;;;10394152;28;20041;-43
2022/07/21 17:36:04;;;;;;;7.05;1.70;;;27.90;49.80;;;;;;10386468;28;20433;-45
2022/07/21 17:41:06;;;;;;;9.63;1.95;;;27.80;49.60;;;;;;10402612;28;20128;-40
2022/07/21 17:46:08;;;;;;;9.25;1.90;;;27.80;49.60;;;;;;10396946;28;20144;-49
2022/07/21 17:51:12;;;;;;;10.05;2.40;;;27.90;49.60;;;;;;10407360;28;20141;-42
2022/07/21 17:56:14;;;;;;;4.85;1.67;;;27.90;49.60;;;;;;10404871;28;20044;-45
2022/07/21 18:01:20;;;;;;;5.68;1.35;;;27.90;49.50;;;;;;10397867;28;20553;-47
2022/07/21 18:06:24;;;;;;;10.63;2.05;;;27.90;49.50;;;;;;10396669;28;20041;-40
2022/07/21 18:11:25;;;;;;;5.13;1.52;;;27.90;49.50;;;;;;10392175;28;20132;-49
2022/07/21 18:16:27;;;;;;;3.70;1.33;;;27.90;49.30;;;;;;10397518;28;20073;-45
2022/07/21 18:21:31;;;;;;;14.32;1.80;;;27.80;49.40;;;;;;10392094;28;20092;-44
2022/07/21 18:26:33;;;;;;;6.85;1.35;;;27.80;49.30;;;;;;10385137;28;20054;-42
2022/07/21 18:31:35;;;;;;;6.07;1.27;;;27.80;49.50;;;;;;10406475;28;20049;-43
2022/07/21 18:36:38;;;;;;;7.65;0.95;;;27.80;49.30;;;;;;10387740;28;20132;-41
2022/07/21 18:41:40;;;;;;;6.57;1.38;;;27.80;49.40;;;;;;10392897;28;20049;-43
2022/07/21 18:46:42;;;;;;;5.80;1.27;;;27.80;49.30;;;;;;10407132;28;20045;-42
2022/07/21 18:51:45;;;;;;;6.10;1.25;;;27.80;49.30;;;;;;10403725;28;20132;-43
2022/07/21 18:56:47;;;;;;;11.32;1.70;;;27.80;49.30;;;;;;10409280;28;20129;-50
2022/07/21 19:01:49;;;;;;;3.83;1.10;;;27.80;49.30;;;;;;10415884;28;20528;-45
2022/07/21 19:06:52;;;;;;;7.93;2.20;;;27.70;49.20;;;;;;10414859;28;20041;-43
2022/07/21 19:11:54;;;;;;;4.07;1.08;;;27.70;49.20;;;;;;10417549;28;20065;-42
2022/07/21 19:16:57;;;;;;;5.63;0.98;;;27.70;49.20;;;;;;10415428;28;20037;-43
2022/07/21 19:22:00;;;;;;;11.10;2.22;;;27.70;49.20;;;;;;10409781;28;20132;-45
2022/07/21 19:27:03;;;;;;;5.72;1.13;;;27.70;49.20;;;;;;10413000;28;20540;-42
2022/07/21 19:32:05;;;;;;;4.35;1.05;;;27.70;49.30;;;;;;10414782;28;20045;-44
2022/07/21 19:37:08;;;;;;;8.95;1.58;;;27.70;49.20;;;;;;10411558;28;20780;-46
2022/07/21 19:42:10;;;;;;;4.10;1.15;;;27.60;49.10;;;;;;10408603;28;20123;-44
2022/07/21 19:47:12;;;;;;;6.03;1.38;;;27.70;49.20;;;;;;10390500;28;20454;-43
2022/07/21 19:52:15;;;;;;;3.40;1.23;;;27.60;49.10;;;;;;10400875;28;20136;-42
2022/07/21 19:57:17;;;;;;;10.48;1.70;;;27.60;49.00;;;;;;10401950;28;20077;-47
2022/07/21 20:02:19;;;;;;;4.72;1.25;;;27.60;49.00;;;;;;10406940;28;20464;-47
2022/07/21 20:07:22;;;;;;;2.97;1.40;;;27.60;49.20;;;;;;10412169;28;20121;-42
2022/07/21 20:12:24;;;;;;;5.38;1.27;;;27.60;49.10;;;;;;10390333;28;20129;-46
2022/07/21 20:17:27;;;;;;;4.82;1.50;;;27.60;49.10;;;;;;10396527;28;20037;-44
2022/07/21 20:22:30;;;;;;;4.57;1.33;;;27.50;49.00;;;;;;10402687;28;20045;-42
2022/07/21 20:27:32;;;;;;;3.78;1.48;;;27.50;49.60;;;;;;10385253;28;20045;-42
2022/07/21 20:32:34;;;;;;;5.05;1.70;;;27.50;49.00;;;;;;10395335;28;20143;-43
2022/07/21 20:37:37;;;;;;;5.70;1.50;;;27.50;49.00;;;;;;10398308;28;20052;-43
2022/07/21 20:42:39;;;;;;;5.07;1.50;;;27.50;49.00;;;;;;10405515;28;20467;-43
2022/07/21 20:47:42;;;;;;;9.90;2.13;;;27.50;49.00;;;;;;10397456;28;20132;-49
2022/07/21 20:52:45;;;;;;;7.50;1.92;;;27.50;48.80;;;;;;10399505;28;20076;-48
2022/07/21 20:57:47;;;;;;;4.75;1.45;;;27.40;48.80;;;;;;10410004;28;20068;-46
2022/07/21 21:02:49;;;;;;;5.82;1.50;;;27.40;49.00;;;;;;10404032;28;20049;-47
2022/07/21 21:07:52;;;;;;;5.18;1.50;;;27.40;48.90;;;;;;10407809;28;20042;-44
2022/07/21 21:12:54;;;;;;;2.75;0.88;;;27.40;48.90;;;;;;10410514;28;20497;-45
2022/07/21 21:17:56;;;;;;;3.88;1.10;;;27.40;48.80;;;;;;10410266;28;20073;-41
2022/07/21 21:22:59;;;;;;;3.88;1.17;;;27.40;48.90;;;;;;10404865;28;20140;-46
2022/07/21 21:28:01;;;;;;;2.53;1.40;;;27.40;48.80;;;;;;10402577;28;20528;-41
2022/07/21 21:33:03;;;;;;;1.13;0.77;;;27.40;48.90;;;;;;10402305;28;20136;-45
2022/07/21 21:38:06;;;;;;;3.80;1.15;;;27.40;48.80;;;;;;10406771;28;20045;-44
2022/07/21 21:43:08;;;;;;;1.85;0.80;;;27.30;48.80;;;;;;10410905;28;20403;-47
2022/07/21 21:48:10;;;;;;;2.25;0.95;;;27.30;48.80;;;;;;10390392;28;20128;-42
2022/07/21 21:53:13;;;;;;;8.25;1.63;;;27.30;48.80;;;;;;10407714;28;20553;-47
2022/07/21 21:58:15;;;;;;;3.25;1.30;;;27.30;48.70;;;;;;10416616;28;20537;-40
2022/07/21 22:03:17;;;;;;;2.03;1.17;;;27.30;48.80;;;;;;10397063;28;20132;-47
2022/07/21 22:08:20;;;;;;;6.70;1.45;;;27.30;48.90;;;;;;10408496;28;20150;-46
2022/07/21 22:13:22;;;;;;;5.25;1.35;;;27.30;48.80;;;;;;10405403;28;20439;-43
2022/07/21 22:18:24;;;;;;;1.92;1.00;;;27.20;48.60;;;;;;10400647;28;20647;-46
2022/07/21 22:23:27;;;;;;;2.85;1.10;;;27.20;48.60;;;;;;10401441;28;20069;-45
2022/07/21 22:28:29;;;;;;;4.25;1.05;;;27.20;48.70;;;;;;10400472;28;20041;-41
2022/07/21 22:33:31;;;;;;;3.75;1.20;;;27.20;48.60;;;;;;10412022;28;20132;-42
2022/07/21 22:38:34;;;;;;;2.47;1.23;;;27.20;48.70;;;;;;10413708;28;20069;-45
2022/07/21 22:43:36;;;;;;;2.70;1.13;;;27.10;49.20;;;;;;10412593;28;20065;-46
2022/07/21 22:48:38;;;;;;;4.00;1.00;;;27.10;48.60;;;;;;10415982;28;20393;-43
2022/07/21 22:53:41;;;;;;;2.20;0.95;;;27.10;48.70;;;;;;10402275;28;20085;-43
2022/07/21 22:58:43;;;;;;;4.80;1.13;;;27.10;48.50;;;;;;10415915;28;20124;-43
2022/07/21 23:03:45;;;;;;;2.53;1.23;;;27.10;48.70;;;;;;10416406;28;20041;-48
2022/07/21 23:08:48;;;;;;;1.75;0.77;;;27.10;48.70;;;;;;10416087;28;20541;-48
2022/07/21 23:13:50;;;;;;;3.17;1.20;;;27.10;48.70;;;;;;10411467;28;20442;-48
2022/07/21 23:18:52;;;;;;;3.78;1.00;;;27.00;48.40;;;;;;10412576;28;20072;-41
2022/07/21 23:23:55;;;;;;;1.05;0.77;;;27.00;48.60;;;;;;10413762;28;20122;-41
2022/07/21 23:28:57;;;;;;;1.80;0.80;;;27.00;48.50;;;;;;10408379;28;20057;-47
2022/07/21 23:33:59;;;;;;;3.40;0.93;;;27.00;48.50;;;;;;10410268;28;20049;-45
2022/07/21 23:39:02;;;;;;;0.98;0.60;;;27.00;48.60;;;;;;10419125;28;20149;-44
2022/07/21 23:44:05;;;;;;;3.17;0.82;;;27.00;48.50;;;;;;10408136;28;20042;-44
2022/07/21 23:49:07;;;;;;;1.40;0.60;;;26.90;48.50;;;;;;10414218;28;20061;-44
2022/07/21 23:54:10;;;;;;;2.33;0.85;;;26.90;48.60;;;;;;10411785;28;20077;-47
2022/07/21 23:59:12;;;;;;;2.13;0.82;;;26.90;48.50;;;;;;10411810;28;20038;-43
